createdAt,value
2019-03-22T00:00:52.110Z,8.56
2019-03-22T00:03:17.905Z,8.58
2019-03-22T00:05:43.687Z,8.49
2019-03-22T00:08:09.487Z,8.55
2019-03-22T00:10:35.263Z,8.54
2019-03-22T00:13:01.064Z,8.55
2019-03-22T00:15:26.841Z,8.54
2019-03-22T00:17:52.680Z,8.51
2019-03-22T00:20:18.468Z,8.51
2019-03-22T00:22:44.288Z,8.49
2019-03-22T00:25:10.058Z,8.54
2019-03-22T00:27:35.833Z,8.52
2019-03-22T00:30:06.361Z,8.51
2019-03-22T00:32:32.152Z,8.48
2019-03-22T00:34:57.940Z,8.48
2019-03-22T00:37:23.711Z,8.51
2019-03-22T00:39:49.515Z,8.50
2019-03-22T00:42:15.294Z,8.50
2019-03-22T00:44:41.083Z,8.42
2019-03-22T00:47:06.870Z,8.43
2019-03-22T00:49:32.651Z,8.44
2019-03-22T00:51:58.427Z,8.45
2019-03-22T00:54:24.218Z,8.36
2019-03-22T00:56:50.008Z,8.48
2019-03-22T00:59:15.804Z,8.42
2019-03-22T01:01:41.585Z,8.36
2019-03-22T01:04:07.381Z,8.38
2019-03-22T01:06:33.168Z,8.39
2019-03-22T01:08:59.062Z,8.39
2019-03-22T01:11:24.840Z,8.33
2019-03-22T01:13:50.620Z,8.34
2019-03-22T01:16:16.431Z,8.37
2019-03-22T01:18:42.213Z,8.35
2019-03-22T01:21:08.018Z,8.35
2019-03-22T01:23:33.793Z,8.35
2019-03-22T01:25:59.584Z,8.35
2019-03-22T01:28:25.378Z,8.33
2019-03-22T01:30:51.186Z,8.29
2019-03-22T01:33:16.971Z,8.20
2019-03-22T01:35:42.761Z,8.20
2019-03-22T01:38:08.540Z,8.15
2019-03-22T01:40:34.335Z,8.14
2019-03-22T01:43:00.116Z,8.16
2019-03-22T01:45:25.904Z,8.17
2019-03-22T01:47:51.690Z,8.15
2019-03-22T01:50:17.504Z,8.13
2019-03-22T01:52:43.277Z,8.14
2019-03-22T01:55:09.174Z,8.13
2019-03-22T01:57:34.952Z,8.16
2019-03-22T02:00:00.733Z,8.19
2019-03-22T02:02:26.527Z,8.13
2019-03-22T02:04:52.305Z,8.15
2019-03-22T02:07:18.103Z,8.16
2019-03-22T02:09:43.893Z,8.12
2019-03-22T02:12:09.674Z,8.03
2019-03-22T02:14:35.565Z,8.10
2019-03-22T02:17:01.378Z,8.10
2019-03-22T02:19:27.176Z,8.06
2019-03-22T02:21:52.968Z,8.13
2019-03-22T02:24:18.749Z,8.14
2019-03-22T02:26:44.542Z,8.12
2019-03-22T02:29:10.336Z,8.04
2019-03-22T02:31:36.185Z,7.95
2019-03-22T02:34:01.967Z,8.07
2019-03-22T02:36:27.756Z,7.98
2019-03-22T02:38:53.541Z,7.92
2019-03-22T02:41:19.329Z,7.85
2019-03-22T02:43:45.120Z,7.87
2019-03-22T02:46:10.915Z,7.96
2019-03-22T02:48:36.693Z,7.95
2019-03-22T02:51:02.478Z,7.91
2019-03-22T02:53:28.269Z,7.98
2019-03-22T02:55:54.195Z,8.01
2019-03-22T02:58:21.500Z,8.06
2019-03-22T03:00:47.439Z,8.04
2019-03-22T03:03:13.243Z,8.04
2019-03-22T03:05:39.018Z,8.08
2019-03-22T03:08:04.810Z,8.02
2019-03-22T03:10:30.588Z,8.08
2019-03-22T03:12:56.380Z,8.08
2019-03-22T03:15:22.176Z,8.08
2019-03-22T03:17:47.986Z,8.08
2019-03-22T03:20:17.540Z,8.07
2019-03-22T03:22:43.338Z,8.00
2019-03-22T03:25:09.317Z,8.04
2019-03-22T03:27:35.683Z,8.01
2019-03-22T03:30:03.487Z,8.01
2019-03-22T03:32:29.276Z,8.03
2019-03-22T03:34:55.054Z,8.05
2019-03-22T03:37:20.833Z,8.00
2019-03-22T03:39:46.627Z,7.91
2019-03-22T03:42:12.413Z,7.88
2019-03-22T03:44:38.200Z,7.89
2019-03-22T03:47:03.981Z,7.95
2019-03-22T03:49:29.782Z,8.02
2019-03-22T03:51:55.573Z,8.01
2019-03-22T03:54:21.359Z,8.01
2019-03-22T03:56:47.137Z,7.99
2019-03-22T03:59:12.929Z,7.99
2019-03-22T04:01:38.723Z,7.97
2019-03-22T04:04:04.514Z,8.03
2019-03-22T04:06:30.302Z,7.98
2019-03-22T04:08:56.084Z,7.83
2019-03-22T04:11:21.876Z,7.87
2019-03-22T04:13:47.686Z,7.84
2019-03-22T04:16:13.466Z,7.84
2019-03-22T04:18:39.259Z,7.88
2019-03-22T04:21:05.049Z,7.80
2019-03-22T04:23:30.863Z,7.80
2019-03-22T04:25:56.641Z,7.87
2019-03-22T04:28:22.421Z,7.93
2019-03-22T04:30:48.214Z,7.88
2019-03-22T04:33:13.993Z,7.87
2019-03-22T04:35:39.789Z,7.81
2019-03-22T04:38:05.571Z,7.79
2019-03-22T04:40:31.365Z,7.87
2019-03-22T04:42:57.141Z,7.86
2019-03-22T04:45:24.641Z,7.92
2019-03-22T04:47:57.409Z,7.89
2019-03-22T04:50:23.610Z,7.90
2019-03-22T04:52:49.694Z,7.90
2019-03-22T04:55:16.298Z,7.90
2019-03-22T04:57:42.084Z,7.94
2019-03-22T05:00:08.375Z,7.96
2019-03-22T05:02:34.261Z,7.98
2019-03-22T05:05:01.184Z,7.98
2019-03-22T05:07:27.569Z,7.99
2019-03-22T05:09:53.877Z,7.97
2019-03-22T05:12:20.161Z,7.95
2019-03-22T05:14:46.249Z,7.95
2019-03-22T05:17:12.759Z,7.93
2019-03-22T05:19:41.564Z,8.01
2019-03-22T05:22:09.966Z,8.02
2019-03-22T05:24:36.853Z,7.94
2019-03-22T05:27:04.044Z,7.91
2019-03-22T05:29:31.132Z,7.86
2019-03-22T05:32:05.699Z,7.86
2019-03-22T05:34:31.581Z,7.85
2019-03-22T05:36:57.380Z,7.88
2019-03-22T05:39:23.161Z,7.89
2019-03-22T05:41:48.948Z,7.91
2019-03-22T05:44:14.734Z,7.92
2019-03-22T05:46:40.534Z,7.85
2019-03-22T05:49:06.309Z,7.87
2019-03-22T05:51:32.104Z,7.88
2019-03-22T05:53:57.886Z,7.90
2019-03-22T05:56:23.680Z,7.93
2019-03-22T05:58:49.460Z,7.90
2019-03-22T06:01:15.244Z,7.90
2019-03-22T06:03:41.045Z,7.88
2019-03-22T06:06:06.826Z,7.92
2019-03-22T06:08:32.617Z,7.93
2019-03-22T06:10:58.405Z,7.91
2019-03-22T06:13:24.212Z,7.90
2019-03-22T06:15:49.989Z,7.89
2019-03-22T06:18:15.785Z,7.85
2019-03-22T06:20:41.579Z,7.80
2019-03-22T06:23:07.373Z,7.74
2019-03-22T06:25:33.163Z,7.72
2019-03-22T06:27:58.965Z,7.72
2019-03-22T06:30:24.747Z,7.85
2019-03-22T06:32:50.547Z,7.88
2019-03-22T06:35:16.329Z,7.90
2019-03-22T06:37:42.117Z,7.91
2019-03-22T06:40:07.911Z,7.90
2019-03-22T06:42:33.704Z,7.87
2019-03-22T06:44:59.481Z,7.88
2019-03-22T06:47:25.330Z,7.90
2019-03-22T06:49:51.484Z,7.83
2019-03-22T06:52:17.277Z,7.88
2019-03-22T06:54:43.057Z,7.85
2019-03-22T06:57:08.841Z,7.83
2019-03-22T06:59:34.628Z,7.88
2019-03-22T07:02:00.403Z,7.89
2019-03-22T07:04:30.042Z,7.81
2019-03-22T07:06:55.832Z,7.81
2019-03-22T07:09:21.642Z,7.81
2019-03-22T07:11:47.421Z,7.83
2019-03-22T07:14:13.218Z,7.86
2019-03-22T07:16:38.999Z,7.84
2019-03-22T07:19:04.906Z,7.84
2019-03-22T07:21:30.687Z,7.84
2019-03-22T07:23:56.594Z,7.77
2019-03-22T07:26:22.376Z,7.84
2019-03-22T07:28:48.165Z,7.79
2019-03-22T07:31:13.965Z,7.72
2019-03-22T07:33:39.752Z,7.72
2019-03-22T07:36:05.535Z,7.76
2019-03-22T07:38:31.337Z,7.73
2019-03-22T07:40:57.112Z,7.70
2019-03-22T07:43:22.915Z,7.74
2019-03-22T07:45:48.696Z,7.71
2019-03-22T07:48:14.527Z,7.73
2019-03-22T07:50:40.407Z,7.79
2019-03-22T07:53:06.192Z,7.82
2019-03-22T07:55:31.985Z,7.78
2019-03-22T07:57:57.767Z,7.80
2019-03-22T08:00:30.767Z,7.90
2019-03-22T08:02:51.260Z,7.86
2019-03-22T08:05:17.075Z,7.86
2019-03-22T08:07:42.853Z,7.88
2019-03-22T08:10:08.790Z,7.86
2019-03-22T08:12:34.562Z,7.89
2019-03-22T08:15:00.428Z,7.94
2019-03-22T08:17:26.383Z,8.02
2019-03-22T08:19:52.239Z,8.10
2019-03-22T08:22:18.089Z,8.09
2019-03-22T08:24:43.852Z,8.10
2019-03-22T08:27:09.640Z,7.93
2019-03-22T08:29:35.438Z,8.02
2019-03-22T08:32:01.226Z,8.10
2019-03-22T08:34:27.040Z,8.03
2019-03-22T08:36:52.810Z,8.06
2019-03-22T08:39:18.726Z,8.12
2019-03-22T08:41:44.515Z,8.12
2019-03-22T08:44:10.287Z,8.07
2019-03-22T08:46:36.102Z,8.08
2019-03-22T08:49:01.983Z,8.20
2019-03-22T08:51:29.877Z,8.35
2019-03-22T08:53:55.901Z,8.32
2019-03-22T08:56:21.901Z,8.26
2019-03-22T08:58:47.704Z,8.29
2019-03-22T09:01:13.481Z,8.35
2019-03-22T09:03:39.270Z,8.35
2019-03-22T09:06:07.783Z,8.37
2019-03-22T09:08:32.753Z,8.32
2019-03-22T09:10:58.560Z,8.31
2019-03-22T09:13:24.341Z,8.32
2019-03-22T09:15:50.170Z,8.28
2019-03-22T09:18:15.988Z,8.26
2019-03-22T09:20:41.839Z,8.45
2019-03-22T09:23:07.637Z,8.49
2019-03-22T09:25:33.417Z,8.48
2019-03-22T09:27:59.218Z,8.52
2019-03-22T09:30:25.061Z,8.52
2019-03-22T09:32:50.804Z,8.56
2019-03-22T09:35:16.622Z,8.56
2019-03-22T09:37:42.394Z,8.62
2019-03-22T09:40:08.782Z,8.63
2019-03-22T09:42:35.089Z,8.70
2019-03-22T09:45:00.927Z,8.70
2019-03-22T09:47:26.746Z,8.70
2019-03-22T09:49:52.516Z,8.72
2019-03-22T09:52:18.293Z,8.79
2019-03-22T09:54:44.106Z,8.86
2019-03-22T09:57:09.886Z,8.80
2019-03-22T09:59:35.665Z,8.74
2019-03-22T10:02:01.459Z,8.88
2019-03-22T10:04:27.241Z,8.90
2019-03-22T10:06:53.054Z,8.89
2019-03-22T10:09:18.926Z,9.00
2019-03-22T10:11:44.730Z,9.01
2019-03-22T10:14:10.511Z,9.04
2019-03-22T10:16:36.423Z,9.11
2019-03-22T10:19:02.156Z,9.10
2019-03-22T10:21:28.000Z,9.20
2019-03-22T10:23:53.806Z,9.24
2019-03-22T10:26:19.675Z,9.37
2019-03-22T10:28:45.434Z,9.40
2019-03-22T10:31:11.263Z,9.56
2019-03-22T10:33:37.011Z,9.53
2019-03-22T10:36:02.909Z,9.45
2019-03-22T10:38:31.716Z,9.44
2019-03-22T10:40:56.533Z,9.51
2019-03-22T10:43:22.391Z,9.62
2019-03-22T10:45:48.157Z,9.60
2019-03-22T10:48:13.997Z,9.64
2019-03-22T10:50:39.825Z,9.76
2019-03-22T10:53:05.641Z,9.72
2019-03-22T10:55:31.418Z,9.86
2019-03-22T10:57:57.216Z,9.79
2019-03-22T11:00:22.997Z,9.91
2019-03-22T11:02:48.886Z,9.80
2019-03-22T11:05:14.759Z,9.80
2019-03-22T11:07:40.587Z,9.98
2019-03-22T11:10:11.109Z,10.11
2019-03-22T11:12:36.816Z,10.21
2019-03-22T11:15:08.396Z,10.18
2019-03-22T11:17:34.408Z,10.24
2019-03-22T11:20:00.323Z,10.21
2019-03-22T11:22:26.155Z,10.21
2019-03-22T11:24:51.956Z,10.31
2019-03-22T11:27:17.775Z,10.32
2019-03-22T11:29:43.557Z,10.47
2019-03-22T11:32:12.857Z,10.57
2019-03-22T11:34:37.049Z,10.55
2019-03-22T11:37:02.940Z,10.53
2019-03-22T11:39:28.721Z,10.59
2019-03-22T11:41:54.522Z,10.69
2019-03-22T11:44:20.306Z,10.68
2019-03-22T11:46:46.097Z,10.66
2019-03-22T11:49:11.891Z,10.61
2019-03-22T11:51:37.669Z,10.54
2019-03-22T11:54:03.761Z,10.63
2019-03-22T11:56:29.553Z,10.69
2019-03-22T11:58:55.348Z,10.66
2019-03-22T12:01:22.490Z,10.79
2019-03-22T12:03:48.543Z,10.98
2019-03-22T12:06:14.331Z,11.03
2019-03-22T12:08:40.134Z,11.06
2019-03-22T12:11:05.930Z,11.03
2019-03-22T12:13:31.727Z,11.14
2019-03-22T12:15:57.501Z,11.14
2019-03-22T12:18:23.295Z,11.18
2019-03-22T12:20:49.091Z,11.12
2019-03-22T12:23:14.895Z,11.13
2019-03-22T12:25:40.682Z,11.15
2019-03-22T12:28:06.496Z,11.17
2019-03-22T12:30:32.276Z,11.25
2019-03-22T12:32:58.095Z,11.27
2019-03-22T12:35:23.878Z,11.47
2019-03-22T12:37:49.675Z,11.50
2019-03-22T12:40:18.275Z,11.58
2019-03-22T12:42:44.058Z,11.75
2019-03-22T12:45:18.382Z,11.84
2019-03-22T12:47:44.170Z,11.91
2019-03-22T12:50:10.073Z,11.87
2019-03-22T12:52:35.853Z,11.87
2019-03-22T12:55:04.250Z,11.96
2019-03-22T12:57:30.030Z,12.00
2019-03-22T12:59:55.829Z,12.25
2019-03-22T13:02:21.620Z,12.41
2019-03-22T13:04:47.465Z,12.61
2019-03-22T13:07:13.245Z,12.87
2019-03-22T13:09:39.038Z,12.95
2019-03-22T13:12:06.384Z,12.92
2019-03-22T13:14:32.309Z,12.86
2019-03-22T13:16:58.102Z,12.76
2019-03-22T13:19:23.958Z,12.67
2019-03-22T13:21:49.738Z,12.75
2019-03-22T13:24:15.530Z,12.77
2019-03-22T13:26:41.323Z,12.87
2019-03-22T13:29:07.245Z,12.94
2019-03-22T13:31:33.123Z,13.09
2019-03-22T13:33:58.901Z,13.76
2019-03-22T13:36:24.996Z,14.01
2019-03-22T13:38:50.781Z,13.48
2019-03-22T13:41:16.571Z,13.13
2019-03-22T13:43:42.462Z,12.96
2019-03-22T13:46:08.859Z,12.99
2019-03-22T13:48:34.648Z,13.22
2019-03-22T13:51:02.378Z,13.52
2019-03-22T13:53:28.157Z,13.55
2019-03-22T13:55:53.957Z,13.52
2019-03-22T13:58:19.739Z,13.47
2019-03-22T14:00:45.533Z,13.70
2019-03-22T14:03:11.321Z,13.74
2019-03-22T14:05:37.132Z,13.84
2019-03-22T14:08:02.913Z,13.90
2019-03-22T14:10:33.275Z,13.90
2019-03-22T14:13:00.266Z,13.83
2019-03-22T14:15:26.053Z,13.81
2019-03-22T14:17:51.839Z,13.82
2019-03-22T14:20:17.644Z,13.80
2019-03-22T14:22:43.439Z,13.68
2019-03-22T14:25:09.241Z,13.63
2019-03-22T14:27:35.030Z,13.53
2019-03-22T14:30:00.809Z,13.60
2019-03-22T14:32:26.601Z,13.62
2019-03-22T14:34:52.392Z,13.65
2019-03-22T14:37:18.204Z,13.63
2019-03-22T14:39:43.990Z,13.73
2019-03-22T14:42:10.129Z,13.70
2019-03-22T14:44:35.887Z,13.87
2019-03-22T14:47:01.680Z,13.82
2019-03-22T14:49:27.474Z,13.82
2019-03-22T14:51:53.277Z,14.02
2019-03-22T14:54:19.062Z,13.96
2019-03-22T14:56:44.854Z,13.90
2019-03-22T14:59:10.653Z,13.85
2019-03-22T15:01:36.592Z,13.98
2019-03-22T15:04:02.556Z,13.94
2019-03-22T15:06:28.346Z,13.83
2019-03-22T15:08:54.137Z,13.90
2019-03-22T15:11:20.050Z,13.83
2019-03-22T15:13:56.789Z,13.88
2019-03-22T15:16:27.047Z,13.88
2019-03-22T15:19:11.250Z,14.04
2019-03-22T15:21:54.095Z,14.01
2019-03-22T15:24:30.626Z,14.05
2019-03-22T15:27:14.776Z,13.96
2019-03-22T15:29:59.088Z,13.98
2019-03-22T15:32:43.486Z,13.96
2019-03-22T15:35:23.406Z,13.93
2019-03-22T15:38:07.898Z,13.95
2019-03-22T15:40:34.021Z,13.91
2019-03-22T15:42:59.813Z,13.88
2019-03-22T15:45:25.617Z,13.85
2019-03-22T15:47:51.409Z,13.83
2019-03-22T15:50:17.513Z,13.83
2019-03-22T15:52:43.413Z,13.85
2019-03-22T15:55:09.199Z,13.83
2019-03-22T15:57:35.093Z,13.81
2019-03-22T16:00:00.898Z,13.85
2019-03-22T16:02:26.705Z,13.84
2019-03-22T16:04:52.488Z,13.79
2019-03-22T16:07:18.386Z,13.74
2019-03-22T16:09:44.172Z,13.72
2019-03-22T16:12:09.965Z,13.70
2019-03-22T16:14:35.755Z,13.67
2019-03-22T16:17:01.551Z,13.63
2019-03-22T16:19:27.397Z,13.61
2019-03-22T16:21:53.175Z,13.62
2019-03-22T16:24:18.990Z,13.58
2019-03-22T16:26:44.768Z,13.55
2019-03-22T16:29:10.562Z,13.50
2019-03-22T16:31:36.367Z,13.53
2019-03-22T16:34:02.171Z,13.50
2019-03-22T16:36:27.951Z,13.46
2019-03-22T16:38:53.742Z,13.45
2019-03-22T16:41:19.524Z,13.39
2019-03-22T16:43:45.327Z,13.35
2019-03-22T16:46:11.118Z,13.30
2019-03-22T16:48:37.017Z,13.25
2019-03-22T16:51:02.802Z,13.21
2019-03-22T16:53:28.616Z,13.12
2019-03-22T16:55:54.401Z,13.04
2019-03-22T16:58:20.208Z,12.98
2019-03-22T17:00:45.991Z,12.91
2019-03-22T17:03:11.788Z,12.84
2019-03-22T17:05:37.575Z,12.77
2019-03-22T17:08:03.401Z,12.74
2019-03-22T17:10:29.181Z,12.66
2019-03-22T17:12:54.960Z,12.61
2019-03-22T17:15:20.748Z,12.56
2019-03-22T17:17:46.538Z,12.48
2019-03-22T17:20:12.461Z,12.36
2019-03-22T17:22:38.243Z,12.28
2019-03-22T17:25:05.540Z,12.15
2019-03-22T17:27:31.328Z,12.04
2019-03-22T17:29:57.133Z,11.88
2019-03-22T17:32:23.044Z,11.77
2019-03-22T17:34:48.827Z,11.70
2019-03-22T17:37:14.611Z,11.58
2019-03-22T17:39:40.399Z,11.49
2019-03-22T17:42:06.210Z,11.35
2019-03-22T17:44:31.968Z,11.29
2019-03-22T17:46:57.750Z,11.23
2019-03-22T17:49:23.551Z,11.16
2019-03-22T17:51:49.354Z,11.09
2019-03-22T17:54:15.155Z,11.11
2019-03-22T17:56:40.954Z,11.02
2019-03-22T17:59:06.761Z,11.02
2019-03-22T18:01:32.541Z,11.01
2019-03-22T18:03:58.416Z,11.00
2019-03-22T18:06:24.199Z,11.04
2019-03-22T18:08:50.003Z,11.03
2019-03-22T18:11:15.793Z,10.98
2019-03-22T18:13:41.580Z,10.92
2019-03-22T18:16:07.390Z,10.84
2019-03-22T18:18:33.175Z,10.79
2019-03-22T18:20:59.005Z,10.80
2019-03-22T18:23:24.785Z,10.76
2019-03-22T18:25:50.590Z,10.70
2019-03-22T18:28:16.369Z,10.67
2019-03-22T18:30:42.179Z,10.71
2019-03-22T18:33:07.963Z,10.72
2019-03-22T18:35:33.762Z,10.71
2019-03-22T18:37:59.565Z,10.71
2019-03-22T18:40:25.360Z,10.71
2019-03-22T18:42:51.156Z,10.65
2019-03-22T18:45:16.965Z,10.64
2019-03-22T18:47:42.747Z,10.61
2019-03-22T18:50:09.567Z,10.56
2019-03-22T18:52:35.356Z,10.51
2019-03-22T18:55:01.141Z,10.48
2019-03-22T18:57:26.937Z,10.44
2019-03-22T18:59:52.733Z,10.36
2019-03-22T19:02:18.539Z,10.31
2019-03-22T19:04:44.573Z,10.25
2019-03-22T19:07:10.429Z,10.11
2019-03-22T19:09:36.208Z,9.98
2019-03-22T19:12:02.313Z,9.90
2019-03-22T19:14:28.115Z,9.82
2019-03-22T19:16:53.909Z,9.72
2019-03-22T19:19:19.703Z,9.72
2019-03-22T19:21:45.512Z,9.70
2019-03-22T19:24:11.303Z,9.66
2019-03-22T19:26:37.102Z,9.63
2019-03-22T19:29:02.883Z,9.64
2019-03-22T19:31:28.689Z,9.63
2019-03-22T19:33:54.476Z,9.55
2019-03-22T19:36:20.328Z,9.54
2019-03-22T19:38:46.146Z,9.48
2019-03-22T19:41:11.928Z,9.43
2019-03-22T19:43:37.729Z,9.40
2019-03-22T19:46:03.516Z,9.31
2019-03-22T19:48:29.310Z,9.33
2019-03-22T19:50:55.107Z,9.37
2019-03-22T19:53:20.920Z,9.38
2019-03-22T19:55:46.707Z,9.38
2019-03-22T19:58:12.503Z,9.34
2019-03-22T20:00:38.305Z,9.32
2019-03-22T20:03:04.104Z,9.28
2019-03-22T20:05:31.399Z,9.26
2019-03-22T20:07:57.302Z,9.30
2019-03-22T20:10:23.120Z,9.36
2019-03-22T20:12:48.927Z,9.40
2019-03-22T20:15:14.714Z,9.43
2019-03-22T20:17:40.512Z,9.44
2019-03-22T20:20:07.417Z,9.45
2019-03-22T20:22:33.222Z,9.44
2019-03-22T20:24:59.017Z,9.44
2019-03-22T20:27:24.914Z,9.57
2019-03-22T20:29:50.709Z,9.57
2019-03-22T20:32:16.505Z,9.57
2019-03-22T20:34:42.300Z,9.59
2019-03-22T20:37:08.093Z,9.58
2019-03-22T20:39:33.901Z,9.57
2019-03-22T20:41:59.680Z,9.51
2019-03-22T20:44:33.545Z,9.48
2019-03-22T20:46:53.177Z,9.51
2019-03-22T20:49:18.973Z,9.51
2019-03-22T20:51:44.770Z,9.46
2019-03-22T20:54:10.573Z,9.46
2019-03-22T20:56:36.477Z,9.44
2019-03-22T20:59:02.242Z,9.42
2019-03-22T21:01:28.025Z,9.43
2019-03-22T21:03:53.820Z,9.48
2019-03-22T21:06:19.618Z,9.50
2019-03-22T21:08:45.400Z,9.52
2019-03-22T21:11:11.202Z,9.52
2019-03-22T21:13:37.207Z,9.52
2019-03-22T21:16:03.109Z,9.56
2019-03-22T21:18:28.895Z,9.58
2019-03-22T21:20:54.714Z,9.61
2019-03-22T21:23:20.487Z,9.60
2019-03-22T21:25:46.293Z,9.63
2019-03-22T21:28:12.078Z,9.63
2019-03-22T21:30:37.877Z,9.60
2019-03-22T21:33:03.667Z,9.61
2019-03-22T21:35:36.848Z,9.62
2019-03-22T21:37:57.147Z,9.60
2019-03-22T21:40:22.948Z,9.58
2019-03-22T21:42:49.136Z,9.56
2019-03-22T21:45:14.941Z,9.56
2019-03-22T21:47:40.718Z,9.56
2019-03-22T21:50:08.012Z,9.54
2019-03-22T21:52:33.801Z,9.50
2019-03-22T21:54:59.599Z,9.49
2019-03-22T21:57:25.378Z,9.53
2019-03-22T21:59:51.180Z,9.55
2019-03-22T22:02:16.968Z,9.54
2019-03-22T22:04:42.753Z,9.55
2019-03-22T22:07:08.745Z,9.48
2019-03-22T22:09:34.530Z,9.48
2019-03-22T22:12:00.326Z,9.45
2019-03-22T22:14:26.115Z,9.43
2019-03-22T22:16:51.911Z,9.47
2019-03-22T22:19:17.709Z,9.48
2019-03-22T22:21:43.513Z,9.50
2019-03-22T22:24:09.296Z,9.49
2019-03-22T22:26:35.093Z,9.45
2019-03-22T22:29:00.877Z,9.46
2019-03-22T22:31:26.675Z,9.46
2019-03-22T22:33:52.463Z,9.41
2019-03-22T22:36:18.261Z,9.36
2019-03-22T22:38:44.053Z,9.41
2019-03-22T22:41:09.987Z,9.44
2019-03-22T22:43:35.777Z,9.44
2019-03-22T22:46:01.582Z,9.48
2019-03-22T22:48:27.374Z,9.45
2019-03-22T22:50:53.169Z,9.45
2019-03-22T22:53:18.965Z,9.43
2019-03-22T22:55:44.770Z,9.35
2019-03-22T22:58:10.565Z,9.35
2019-03-22T23:00:36.651Z,9.44
2019-03-22T23:03:02.466Z,9.41
2019-03-22T23:05:28.249Z,9.41
2019-03-22T23:07:54.084Z,9.36
2019-03-22T23:10:19.976Z,9.33
2019-03-22T23:12:45.774Z,9.26
2019-03-22T23:15:11.751Z,9.15
2019-03-22T23:17:37.549Z,9.14
2019-03-22T23:20:04.345Z,9.14
2019-03-22T23:22:30.152Z,9.05
2019-03-22T23:24:55.935Z,9.05
2019-03-22T23:27:21.732Z,9.06
2019-03-22T23:29:47.523Z,9.00
2019-03-22T23:32:13.326Z,9.04
2019-03-22T23:34:39.124Z,9.01
2019-03-22T23:37:07.113Z,9.00
2019-03-22T23:39:32.611Z,8.96
2019-03-22T23:41:58.402Z,8.98
2019-03-22T23:44:24.200Z,8.93
2019-03-22T23:46:49.982Z,8.94
2019-03-22T23:49:15.978Z,8.91
2019-03-22T23:51:41.779Z,8.89
2019-03-22T23:54:07.574Z,8.84
2019-03-22T23:56:33.732Z,8.80
2019-03-22T23:58:59.549Z,8.63
